Time;durP1;ratioP1;P1;durP2;ratioP2;P2;SDS_P1;SDS_P2;PMS_P1;PMS_P2;Temp;Humidity;BMP_temperature;BMP_pressure;BME280_temperature;BME280_humidity;BME280_pressure;Samples;Min_cycle;Max_cycle;Signal;HPM_P1;HPM_P2
2023/11/15 00:01:32;;;;;;;21.67;3.67;;;;;;;-146.27;88.55;31482.28;5036867;28;20550;-72
2023/11/15 00:03:57;;;;;;;18.85;4.40;;;;;;;-146.27;89.10;31589.38;5026633;28;20148;-72
2023/11/15 00:06:23;;;;;;;21.58;3.30;;;;;;;-146.27;88.69;31541.78;5030194;28;20017;-72
2023/11/15 00:08:48;;;;;;;19.08;3.78;;;;;;;-146.27;87.97;31494.19;5038545;28;20036;-72
2023/11/15 00:11:18;;;;;;;17.50;3.20;;;;;;;-146.27;87.52;31436.69;5029126;28;20052;-72
2023/11/15 00:13:50;;;;;;;21.48;3.67;;;;;;;-146.27;87.81;31549.72;5035128;28;20544;-72
2023/11/15 00:16:16;;;;;;;18.35;3.17;;;;;;;-146.27;87.50;31496.16;5021678;28;20382;-71
2023/11/15 00:18:42;;;;;;;15.90;3.25;;;;;;;-146.27;87.47;31454.53;5030405;28;20509;-72
2023/11/15 00:21:07;;;;;;;22.48;3.35;;;;;;;-146.27;87.34;31601.28;5038675;28;20057;-71
2023/11/15 00:23:34;;;;;;;13.90;2.78;;;;;;;-146.27;87.31;31555.66;5026400;28;20037;-71
2023/11/15 00:26:00;;;;;;;21.55;2.53;;;;;;;-146.27;87.01;31559.63;5026937;28;20029;-71
2023/11/15 00:28:26;;;;;;;12.90;2.72;;;;;;;-146.27;86.26;31648.88;5022380;28;20036;-71
2023/11/15 00:30:52;;;;;;;12.52;2.53;;;;;;;-146.27;85.29;31569.56;5038929;28;20021;-71
2023/11/15 00:33:18;;;;;;;12.48;3.00;;;;;;;-146.27;84.92;31648.88;5047510;28;20075;-72
2023/11/15 00:35:44;;;;;;;14.00;2.65;;;;;;;-146.27;84.42;31559.63;5046294;28;20391;-72
2023/11/15 00:38:11;;;;;;;16.42;2.28;;;;;;;-146.27;84.22;31577.47;5044464;28;20064;-71
2023/11/15 00:40:37;;;;;;;12.13;2.00;;;;;;;-146.27;84.31;31579.47;5035588;28;20029;-72
2023/11/15 00:43:03;;;;;;;9.75;2.05;;;;;;;-146.27;84.21;31613.19;5036334;28;20116;-71
2023/11/15 00:45:29;;;;;;;18.48;2.63;;;;;;;-146.27;83.50;31549.72;5018506;28;20033;-71
2023/11/15 00:47:54;;;;;;;12.68;2.40;;;;;;;-146.27;84.29;31593.34;5027904;28;20025;-71
2023/11/15 00:50:20;;;;;;;15.48;3.40;;;;;;;-146.27;84.58;31672.69;5029230;28;20468;-71
2023/11/15 00:52:45;;;;;;;18.63;3.15;;;;;;;-146.27;84.98;31648.88;5022085;28;20022;-71
2023/11/15 00:55:12;;;;;;;22.50;3.08;;;;;;;-146.27;85.10;31692.50;5017655;28;20397;-72
2023/11/15 00:57:38;;;;;;;13.20;2.33;;;;;;;-146.27;84.91;31605.25;5040830;28;20096;-72
2023/11/15 01:00:13;;;;;;;22.48;3.03;;;;;;;-146.27;84.99;31640.94;5037852;28;20442;-71
2023/11/15 01:02:46;;;;;;;15.73;2.78;;;;;;;-146.27;85.12;31726.22;5044403;28;20036;-71
2023/11/15 01:05:11;;;;;;;25.63;4.03;;;;;;;-146.27;84.23;31609.22;5037358;28;20528;-70
2023/11/15 01:07:37;;;;;;;17.30;2.28;;;;;;;-146.27;84.59;31577.47;5029212;28;20053;-71
2023/11/15 01:10:05;;;;;;;23.50;2.65;;;;;;;-146.27;84.26;31589.38;5028237;28;20035;-72
2023/11/15 01:12:30;;;;;;;19.50;2.47;;;;;;;-146.27;84.76;31611.19;5048090;28;20071;-70
2023/11/15 01:14:55;;;;;;;21.33;2.53;;;;;;;-146.27;84.45;31593.34;5042344;28;22085;-72
2023/11/15 01:17:21;;;;;;;15.10;2.30;;;;;;;-146.27;84.07;31551.69;5035727;28;20033;-72
2023/11/15 01:19:46;;;;;;;14.60;2.38;;;;;;;-146.27;84.01;31591.38;5029911;28;20084;-72
2023/11/15 01:22:12;;;;;;;15.90;2.38;;;;;;;-146.27;83.81;31541.78;5023236;28;20087;-71
2023/11/15 01:24:39;;;;;;;21.20;2.35;;;;;;;-146.27;83.83;31543.78;5032981;28;20098;-71
2023/11/15 01:27:06;;;;;;;16.52;2.00;;;;;;;-146.27;83.61;31573.53;5036234;28;20043;-71
2023/11/15 01:29:31;;;;;;;19.55;2.65;;;;;;;-146.27;83.26;31498.16;5028612;28;20699;-71
2023/11/15 01:31:56;;;;;;;23.45;2.65;;;;;;;-146.27;83.17;31512.03;5031979;28;20112;-71
2023/11/15 01:34:22;;;;;;;18.42;2.53;;;;;;;-146.27;83.39;31450.56;5033525;28;20100;-71
2023/11/15 01:36:48;;;;;;;21.58;3.17;;;;;;;-146.27;83.99;31516.00;5040968;28;20027;-71
2023/11/15 01:39:16;;;;;;;20.20;2.47;;;;;;;-146.27;83.48;31480.31;5038983;28;20065;-71
2023/11/15 01:41:48;;;;;;;16.05;2.80;;;;;;;-146.27;84.07;31593.34;5021866;28;20025;-71
2023/11/15 01:44:15;;;;;;;12.18;2.60;;;;;;;-146.27;83.58;31480.31;5027541;28;20029;-70
2023/11/15 01:46:44;;;;;;;18.85;2.92;;;;;;;-146.27;83.51;31468.41;5023143;28;20029;-72
2023/11/15 01:49:10;;;;;;;17.92;3.30;;;;;;;-146.27;84.58;31599.31;5027934;28;20025;-71
2023/11/15 01:51:36;;;;;;;13.73;2.20;;;;;;;-146.27;83.70;31553.69;5030764;28;20025;-71
2023/11/15 01:54:01;;;;;;;19.83;2.33;;;;;;;-146.27;83.97;31494.19;5031596;28;20035;-71
2023/11/15 01:56:27;;;;;;;17.55;2.80;;;;;;;-146.27;83.82;31583.44;5026216;28;20021;-73
2023/11/15 01:58:53;;;;;;;18.75;3.22;;;;;;;-146.27;83.32;31537.81;5036331;28;20112;-71
2023/11/15 02:01:19;;;;;;;16.80;2.75;;;;;;;-146.27;82.77;31446.59;5029221;28;20033;-72
2023/11/15 02:03:44;;;;;;;15.27;2.47;;;;;;;-146.27;83.43;31561.63;5022548;28;20371;-71
2023/11/15 02:06:10;;;;;;;19.73;2.70;;;;;;;-146.27;83.31;31553.69;5026185;28;20060;-70
2023/11/15 02:08:36;;;;;;;14.40;2.03;;;;;;;-146.27;82.56;31482.28;5038680;28;20029;-71
2023/11/15 02:11:01;;;;;;;16.15;2.13;;;;;;;-146.27;82.71;31418.81;5028891;28;20053;-71
2023/11/15 02:13:27;;;;;;;15.40;2.47;;;;;;;-146.27;83.09;31529.88;5023584;28;20026;-72
2023/11/15 02:15:56;;;;;;;15.88;2.22;;;;;;;-146.27;83.17;31502.13;5033873;28;20084;-71
2023/11/15 02:18:21;;;;;;;16.38;2.03;;;;;;;-146.27;82.60;31410.91;5033657;28;20037;-70
2023/11/15 02:20:47;;;;;;;18.70;2.92;;;;;;;-146.27;83.07;31545.75;5029220;28;20579;-72
2023/11/15 02:23:13;;;;;;;13.68;1.92;;;;;;;-146.27;83.01;31543.78;5046573;28;20043;-71
2023/11/15 02:25:40;;;;;;;13.75;2.20;;;;;;;-146.27;82.67;31494.19;5049678;28;20106;-71
2023/11/15 02:28:07;;;;;;;12.10;1.77;;;;;;;-146.27;81.97;31410.91;5042303;28;20080;-71
2023/11/15 02:30:33;;;;;;;23.25;2.63;;;;;;;-146.27;82.25;31478.31;5034364;28;20095;-71
2023/11/15 02:32:58;;;;;;;15.45;2.38;;;;;;;-146.27;82.28;31454.53;5042762;28;20033;-72
2023/11/15 02:35:24;;;;;;;7.72;2.35;;;;;;;-146.27;82.36;31472.38;5040779;28;20151;-71
2023/11/15 02:37:50;;;;;;;17.60;2.20;;;;;;;-146.27;82.23;31496.16;5041818;28;20145;-72
2023/11/15 02:40:16;;;;;;;17.00;2.95;;;;;;;-146.27;82.46;31525.91;5043057;28;20030;-71
2023/11/15 02:42:41;;;;;;;13.05;2.03;;;;;;;-146.27;82.85;31593.34;5034794;28;20031;-71
2023/11/15 02:45:07;;;;;;;17.63;2.67;;;;;;;-146.27;82.69;31589.38;5030407;28;20068;-71
2023/11/15 02:47:32;;;;;;;15.45;1.90;;;;;;;-146.27;81.73;31456.50;5032543;28;20036;-71
2023/11/15 02:49:58;;;;;;;11.27;2.35;;;;;;;-146.27;81.35;31432.72;5031005;28;20071;-71
2023/11/15 02:52:23;;;;;;;17.05;2.53;;;;;;;-146.27;81.30;31424.78;5032196;28;20035;-71
2023/11/15 02:54:48;;;;;;;21.50;2.88;;;;;;;-146.27;81.25;31389.09;5037180;28;20044;-71
2023/11/15 02:57:14;;;;;;;15.63;2.60;;;;;;;-146.27;81.82;31490.22;5034899;28;20399;-72
2023/11/15 02:59:40;;;;;;;15.90;2.67;;;;;;;-146.27;82.32;31490.22;5041649;28;20025;-71
2023/11/15 03:02:05;;;;;;;13.52;2.30;;;;;;;-146.27;82.54;31496.16;5035136;28;20032;-71
2023/11/15 03:04:30;;;;;;;17.83;3.13;;;;;;;-146.27;82.07;31462.47;5029776;28;20037;-71
2023/11/15 03:06:56;;;;;;;25.63;2.92;;;;;;;-146.27;81.93;31516.00;5041194;28;20025;-71
2023/11/15 03:09:21;;;;;;;18.98;3.38;;;;;;;-146.27;81.45;31472.38;5035830;28;20017;-72
2023/11/15 03:11:47;;;;;;;19.30;2.38;;;;;;;-146.27;80.75;31355.38;5033024;28;20036;-71
2023/11/15 03:14:13;;;;;;;15.45;2.97;;;;;;;-146.27;80.48;31337.53;5033650;28;20393;-71
2023/11/15 03:16:39;;;;;;;10.73;2.00;;;;;;;-146.27;80.90;31400.97;5039444;28;20021;-71
2023/11/15 03:19:05;;;;;;;15.77;2.55;;;;;;;-146.27;81.32;31440.66;5034141;28;20090;-71
2023/11/15 03:21:30;;;;;;;11.55;2.72;;;;;;;-146.27;81.87;31553.69;5030940;28;20028;-70
2023/11/15 03:23:56;;;;;;;11.43;1.80;;;;;;;-146.27;81.49;31512.03;5043276;28;20029;-70
2023/11/15 03:26:21;;;;;;;16.88;2.42;;;;;;;-146.27;81.08;31486.25;5030980;28;20025;-70
2023/11/15 03:28:47;;;;;;;12.52;1.70;;;;;;;-146.27;81.47;31561.63;5031754;28;20064;-70
2023/11/15 03:31:12;;;;;;;13.50;1.85;;;;;;;-146.27;81.21;31482.28;5025741;28;20052;-70
2023/11/15 03:33:39;;;;;;;10.10;2.35;;;;;;;-146.27;80.78;31408.91;5037546;28;20026;-70
2023/11/15 03:36:05;;;;;;;13.40;2.22;;;;;;;-146.27;81.61;31476.34;5044424;28;20099;-71
2023/11/15 03:38:31;;;;;;;8.35;1.90;;;;;;;-146.27;81.01;31397.00;5045175;28;20029;-71
2023/11/15 03:40:56;;;;;;;9.65;2.22;;;;;;;-146.27;81.37;31468.41;5023121;28;20052;-70
2023/11/15 03:43:22;;;;;;;22.15;2.38;;;;;;;-146.27;81.65;31510.06;5034818;28;20023;-71
2023/11/15 03:45:47;;;;;;;15.15;2.45;;;;;;;-146.27;81.08;31402.97;5037834;28;20704;-70
2023/11/15 03:48:12;;;;;;;14.40;2.00;;;;;;;-146.27;80.73;31355.38;5043964;28;20025;-70
2023/11/15 03:50:38;;;;;;;14.98;2.22;;;;;;;-146.27;80.94;31371.22;5029224;28;20032;-71
2023/11/15 03:53:03;;;;;;;11.40;2.10;;;;;;;-146.27;81.18;31462.47;5040515;28;20055;-70
2023/11/15 03:55:32;;;;;;;14.63;2.08;;;;;;;-146.27;81.03;31389.09;5041307;28;20397;-70
2023/11/15 03:57:57;;;;;;;11.70;2.42;;;;;;;-146.27;80.85;31432.72;5045752;28;20108;-71
2023/11/15 04:00:23;;;;;;;16.30;1.75;;;;;;;-146.27;81.27;31585.41;5030199;28;20459;-72
2023/11/15 04:02:49;;;;;;;12.52;2.00;;;;;;;-146.27;80.48;31371.22;5038289;28;20033;-72
2023/11/15 04:05:17;;;;;;;13.52;1.70;;;;;;;-146.27;80.64;31450.56;5028364;28;20032;-70
2023/11/15 04:07:43;;;;;;;13.32;1.70;;;;;;;-146.27;80.86;31458.50;5033873;28;20044;-70
2023/11/15 04:10:11;;;;;;;17.95;2.65;;;;;;;-146.27;80.83;31422.78;5037409;28;20765;-72
2023/11/15 04:12:37;;;;;;;20.45;2.63;;;;;;;-146.27;80.51;31402.97;5030288;28;20457;-70
2023/11/15 04:15:03;;;;;;;11.52;2.22;;;;;;;-146.27;81.76;31506.09;5034650;28;20129;-71
2023/11/15 04:17:29;;;;;;;19.02;2.63;;;;;;;-146.27;81.64;31486.25;5031842;28;20044;-71
2023/11/15 04:19:54;;;;;;;16.10;2.03;;;;;;;-146.27;80.75;31391.06;5041436;28;20052;-71
2023/11/15 04:22:20;;;;;;;14.88;2.63;;;;;;;-146.27;80.75;31448.56;5030139;28;20055;-71
2023/11/15 04:24:46;;;;;;;15.00;2.10;;;;;;;-146.27;80.69;31418.81;5042904;28;20029;-71
2023/11/15 04:27:12;;;;;;;16.73;2.15;;;;;;;-146.27;80.10;31391.06;5027601;28;20062;-71
2023/11/15 04:29:39;;;;;;;14.10;2.30;;;;;;;-146.27;80.32;31446.59;5041255;28;20033;-72
2023/11/15 04:32:05;;;;;;;16.08;3.03;;;;;;;-146.27;80.56;31482.28;5033149;28;20464;-72
2023/11/15 04:34:31;;;;;;;14.52;2.97;;;;;;;-146.27;79.77;31331.56;5035145;28;20093;-71
2023/11/15 04:36:57;;;;;;;13.25;2.28;;;;;;;-146.27;80.42;31490.22;5039572;28;20119;-71
2023/11/15 04:39:24;;;;;;;18.20;1.85;;;;;;;-146.27;80.24;31422.78;5040996;28;20037;-70
2023/11/15 04:41:52;;;;;;;12.23;1.75;;;;;;;-146.27;80.23;31458.50;5043449;28;20036;-70
2023/11/15 04:44:19;;;;;;;12.13;1.85;;;;;;;-146.27;80.04;31458.50;5038720;28;20025;-70
2023/11/15 04:46:46;;;;;;;8.73;1.42;;;;;;;-146.27;80.40;31518.00;5042865;28;20056;-70
2023/11/15 04:49:11;;;;;;;16.98;2.72;;;;;;;-146.27;79.92;31464.44;5030395;28;20033;-71
2023/11/15 04:51:37;;;;;;;18.15;1.95;;;;;;;-146.27;79.99;31458.50;5036246;28;20029;-71
2023/11/15 04:54:03;;;;;;;16.83;2.08;;;;;;;-146.27;79.72;31438.66;5033001;28;20017;-70
2023/11/15 04:56:29;;;;;;;15.00;2.28;;;;;;;-146.27;80.26;31565.59;5030235;28;20024;-70
2023/11/15 04:58:54;;;;;;;16.60;2.55;;;;;;;-146.27;79.82;31557.66;5048431;28;20033;-71
2023/11/15 05:01:20;;;;;;;13.38;2.00;;;;;;;-146.27;79.33;31498.16;5031022;28;20030;-70
2023/11/15 05:03:46;;;;;;;12.68;2.17;;;;;;;-146.27;79.11;31474.34;5041261;28;20029;-71
2023/11/15 05:06:11;;;;;;;17.08;1.67;;;;;;;-146.27;78.98;31410.91;5030852;28;20037;-70
2023/11/15 05:08:37;;;;;;;12.60;1.77;;;;;;;-146.27;79.04;31474.34;5043663;28;20071;-71
2023/11/15 05:11:03;;;;;;;12.10;1.60;;;;;;;-146.27;79.00;31476.34;5027258;28;20025;-71
2023/11/15 05:13:31;;;;;;;12.70;2.03;;;;;;;-146.27;79.24;31514.03;5024488;28;20022;-70
2023/11/15 05:15:57;;;;;;;13.73;2.28;;;;;;;-146.27;79.39;31490.22;5029804;28;20021;-72
2023/11/15 05:18:23;;;;;;;9.65;2.22;;;;;;;-146.27;79.93;31589.38;5028150;28;20162;-71
2023/11/15 05:20:48;;;;;;;14.15;2.20;;;;;;;-146.27;79.85;31553.69;5044655;28;20126;-70
2023/11/15 05:23:14;;;;;;;10.63;1.88;;;;;;;-146.27;79.62;31577.47;5043898;28;20021;-70
2023/11/15 05:25:40;;;;;;;11.65;1.67;;;;;;;-146.27;79.98;31543.78;5035284;28;20044;-70
2023/11/15 05:28:06;;;;;;;13.90;2.67;;;;;;;-146.27;80.38;31613.19;5043745;28;20500;-71
2023/11/15 05:30:31;;;;;;;9.50;1.83;;;;;;;-146.27;80.01;31571.53;5026810;28;20036;-69
2023/11/15 05:32:58;;;;;;;19.58;2.47;;;;;;;-146.27;80.26;31559.63;5042621;28;20039;-70
2023/11/15 05:35:24;;;;;;;9.52;1.92;;;;;;;-146.27;80.02;31462.47;5036008;28;20057;-70
2023/11/15 05:37:49;;;;;;;11.27;2.17;;;;;;;-146.27;80.65;31539.81;5042640;28;20535;-71
2023/11/15 05:40:18;;;;;;;12.23;2.22;;;;;;;-146.27;80.92;31593.34;5027086;28;20159;-71
2023/11/15 05:42:44;;;;;;;11.63;2.08;;;;;;;-146.27;80.89;31518.00;5049005;28;20021;-70
2023/11/15 05:45:10;;;;;;;16.80;2.42;;;;;;;-146.27;81.17;31521.94;5042794;28;20078;-71
2023/11/15 05:47:39;;;;;;;13.57;2.33;;;;;;;-146.27;82.06;31656.81;5041297;28;20028;-71
2023/11/15 05:50:09;;;;;;;17.73;3.05;;;;;;;-146.27;81.50;31541.78;5043446;28;20032;-71
2023/11/15 05:52:37;;;;;;;19.92;3.30;;;;;;;-146.27;81.29;31549.72;5043277;28;20116;-71
2023/11/15 05:55:05;;;;;;;23.08;2.47;;;;;;;-146.27;81.95;31688.53;5045804;28;20595;-71
2023/11/15 05:57:30;;;;;;;13.95;2.05;;;;;;;-146.27;81.87;31706.41;5043679;28;20052;-71
2023/11/15 05:59:56;;;;;;;10.50;1.83;;;;;;;-146.27;81.54;31666.72;5037598;28;20103;-71
2023/11/15 06:02:21;;;;;;;13.63;2.00;;;;;;;-146.27;80.62;31543.78;5020917;28;20464;-70
2023/11/15 06:04:47;;;;;;;10.38;1.83;;;;;;;-146.27;80.44;31636.97;5034849;28;20021;-70
2023/11/15 06:07:13;;;;;;;13.90;1.77;;;;;;;-146.27;79.96;31581.44;5033991;28;20029;-71
2023/11/15 06:09:38;;;;;;;18.52;1.85;;;;;;;-146.27;80.37;31638.97;5024519;28;20117;-71
2023/11/15 06:12:04;;;;;;;13.23;1.73;;;;;;;-146.27;79.69;31557.66;5043572;28;20032;-71
2023/11/15 06:14:30;;;;;;;17.35;2.03;;;;;;;-146.27;80.54;31680.63;5034497;28;20120;-71
2023/11/15 06:16:55;;;;;;;9.63;1.55;;;;;;;-146.27;80.22;31664.75;5035793;28;20045;-71
2023/11/15 06:19:23;;;;;;;15.27;1.88;;;;;;;-146.27;79.25;31559.63;5044524;28;20050;-70
2023/11/15 06:21:48;;;;;;;8.57;1.65;;;;;;;-146.27;79.29;31551.69;5037173;28;20021;-70
2023/11/15 06:24:13;;;;;;;18.52;2.13;;;;;;;-146.27;79.80;31650.88;5052128;28;20029;-71
2023/11/15 06:26:39;;;;;;;17.40;2.65;;;;;;;-146.27;79.79;31603.25;5051731;28;20112;-72
2023/11/15 06:29:05;;;;;;;14.52;1.75;;;;;;;-146.27;79.17;31529.88;5027375;28;20151;-71
2023/11/15 06:31:32;;;;;;;9.65;1.75;;;;;;;-146.27;78.94;31502.13;5037026;28;20088;-70
2023/11/15 06:33:58;;;;;;;15.02;1.90;;;;;;;-146.27;79.43;31652.84;5050528;28;20021;-71
2023/11/15 06:36:24;;;;;;;7.72;1.60;;;;;;;-146.27;79.63;31662.75;5043545;28;20457;-70
2023/11/15 06:38:49;;;;;;;16.65;2.53;;;;;;;-146.27;78.71;31549.72;5055289;28;20096;-71
2023/11/15 06:41:15;;;;;;;9.60;1.65;;;;;;;-146.27;79.06;31577.47;5030789;28;20108;-70
2023/11/15 06:43:41;;;;;;;15.65;2.50;;;;;;;-146.27;79.28;31607.22;5031724;28;20029;-71
2023/11/15 06:46:07;;;;;;;14.30;1.60;;;;;;;-146.27;79.10;31551.69;5027320;28;20581;-71
2023/11/15 06:48:33;;;;;;;22.80;2.65;;;;;;;-146.27;79.48;31571.53;5025386;28;20128;-72
2023/11/15 06:50:59;;;;;;;13.65;1.95;;;;;;;-146.27;79.64;31565.59;5023745;28;20039;-72
2023/11/15 06:53:25;;;;;;;12.32;1.75;;;;;;;-146.27;79.61;31621.13;5043548;28;20059;-70
2023/11/15 06:55:52;;;;;;;16.33;2.42;;;;;;;-146.27;80.50;31692.50;5048402;28;20656;-72
2023/11/15 06:58:19;;;;;;;11.55;1.92;;;;;;;-146.27;80.02;31660.78;5031547;28;20756;-72
2023/11/15 07:00:44;;;;;;;12.07;2.10;;;;;;;-146.27;80.19;31648.88;5036581;28;20021;-70
2023/11/15 07:03:12;;;;;;;18.05;2.53;;;;;;;-146.27;80.38;31625.09;5040052;28;20155;-72
2023/11/15 07:05:40;;;;;;;15.25;2.05;;;;;;;-146.27;79.58;31577.47;5029790;28;20036;-71
2023/11/15 07:08:07;;;;;;;16.13;2.40;;;;;;;-146.27;79.43;31615.16;5042642;28;20033;-71
2023/11/15 07:10:33;;;;;;;11.40;1.95;;;;;;;-146.27;79.12;31565.59;5033371;28;20021;-70
2023/11/15 07:13:00;;;;;;;14.35;2.78;;;;;;;-146.27;79.18;31573.53;5040537;28;20039;-71
2023/11/15 07:15:26;;;;;;;11.02;1.80;;;;;;;-146.27;79.18;31549.72;5037867;28;20043;-71
2023/11/15 07:17:54;;;;;;;15.38;3.33;;;;;;;-146.27;78.60;31531.88;5048141;28;20049;-71
2023/11/15 07:20:21;;;;;;;15.00;2.13;;;;;;;-146.27;79.53;31636.97;5027765;28;20037;-71
2023/11/15 07:22:47;;;;;;;14.88;2.35;;;;;;;-146.27;79.69;31589.38;5032383;28;20067;-71
2023/11/15 07:25:15;;;;;;;9.75;2.83;;;;;;;-146.27;80.27;31684.59;5029538;28;20048;-70
2023/11/15 07:27:40;;;;;;;18.00;2.25;;;;;;;-146.27;79.91;31621.13;5029558;28;20033;-72
2023/11/15 07:30:07;;;;;;;21.30;1.98;;;;;;;-146.27;79.62;31605.25;5026347;28;20044;-72
2023/11/15 07:32:33;;;;;;;8.10;1.73;;;;;;;-146.27;79.83;31646.91;5035634;28;20036;-73
2023/11/15 07:34:59;;;;;;;17.25;1.83;;;;;;;-146.27;79.79;31605.25;5035401;28;20074;-71
2023/11/15 07:37:24;;;;;;;16.15;1.90;;;;;;;-146.27;79.57;31533.84;5040227;28;20040;-72
2023/11/15 07:39:50;;;;;;;18.73;2.83;;;;;;;-146.27;79.33;31605.25;5036396;28;20032;-71
2023/11/15 07:42:17;;;;;;;9.40;2.97;;;;;;;-146.27;79.61;31619.13;5035962;28;20492;-70
2023/11/15 07:44:43;;;;;;;10.07;1.80;;;;;;;-146.27;79.47;31599.31;5031442;28;20029;-70
2023/11/15 07:47:10;;;;;;;16.70;1.90;;;;;;;-146.27;79.31;31627.06;5030382;28;20108;-70
2023/11/15 07:49:36;;;;;;;14.90;2.17;;;;;;;-146.27;78.92;31557.66;5029097;28;20519;-70
2023/11/15 07:52:02;;;;;;;14.20;2.42;;;;;;;-146.27;78.74;31585.41;5029254;28;20033;-71
2023/11/15 07:54:27;;;;;;;17.98;2.10;;;;;;;-146.27;78.58;31482.28;5031934;28;20095;-71
2023/11/15 07:56:53;;;;;;;10.88;1.38;;;;;;;-146.27;78.47;31516.00;5031846;28;20025;-71
2023/11/15 07:59:21;;;;;;;14.35;2.75;;;;;;;-146.27;78.79;31498.16;5029936;28;20477;-70
2023/11/15 08:01:47;;;;;;;13.63;2.78;;;;;;;-146.27;78.52;31494.19;5041211;28;20033;-71
2023/11/15 08:04:13;;;;;;;16.88;2.63;;;;;;;-146.27;78.35;31414.88;5031806;28;20089;-70
2023/11/15 08:06:39;;;;;;;19.95;2.47;;;;;;;-146.27;79.11;31474.34;5028208;28;20137;-71
2023/11/15 08:09:07;;;;;;;21.27;2.20;;;;;;;-146.27;79.14;31468.41;5026480;28;20056;-72
2023/11/15 08:11:36;;;;;;;18.48;2.80;;;;;;;-146.27;80.37;31539.81;5026508;28;20366;-71
2023/11/15 08:14:06;;;;;;;20.20;3.38;;;;;;;-146.27;82.08;31565.59;5035466;28;20025;-72
2023/11/15 08:16:34;;;;;;;25.15;3.05;;;;;;;-146.27;83.92;31676.66;5024832;28;20049;-72
2023/11/15 08:19:01;;;;;;;18.00;2.38;;;;;;;-146.27;83.93;31660.78;5037879;28;20043;-71
2023/11/15 08:21:27;;;;;;;10.25;1.75;;;;;;;-146.27;83.89;31775.81;5050125;28;20020;-72
2023/11/15 08:23:54;;;;;;;16.10;2.00;;;;;;;-146.27;84.91;31920.59;5049042;28;20071;-71
2023/11/15 08:26:20;;;;;;;16.65;2.35;;;;;;;-146.27;85.31;31940.44;5044890;28;20037;-71
2023/11/15 08:28:47;;;;;;;13.40;2.25;;;;;;;-146.27;85.11;31902.75;5046586;28;20120;-71
2023/11/15 08:31:14;;;;;;;11.18;1.92;;;;;;;-146.27;85.35;31763.91;5035020;28;20041;-71
2023/11/15 08:33:40;;;;;;;18.52;2.53;;;;;;;-146.27;86.08;31874.97;5048608;28;20738;-71
2023/11/15 08:36:10;;;;;;;20.90;2.55;;;;;;;-146.27;85.84;31821.44;5041172;28;20025;-71
2023/11/15 08:38:36;;;;;;;14.52;2.10;;;;;;;-146.27;85.53;31771.84;5035352;28;20030;-72
2023/11/15 08:41:01;;;;;;;14.80;1.77;;;;;;;-146.27;84.94;31724.25;5031076;28;20027;-73
2023/11/15 08:43:26;;;;;;;19.25;2.70;;;;;;;-146.27;84.64;31696.47;5028188;28;20053;-72
2023/11/15 08:45:52;;;;;;;17.30;2.13;;;;;;;-146.27;84.13;31698.47;5011103;28;20540;-72
2023/11/15 08:48:17;;;;;;;13.55;1.80;;;;;;;-146.27;83.80;31666.72;5047917;28;20028;-72
2023/11/15 08:50:44;;;;;;;19.40;1.98;;;;;;;-146.27;82.88;31573.53;5038056;28;20025;-72
2023/11/15 08:53:14;;;;;;;8.57;1.92;;;;;;;-146.27;82.58;31573.53;5045682;28;20055;-72
2023/11/15 08:55:44;;;;;;;12.88;1.65;;;;;;;-146.27;82.00;31575.50;5049550;28;20163;-71
2023/11/15 08:58:13;;;;;;;16.27;2.67;;;;;;;-146.27;82.16;31609.22;5044689;28;20029;-72
2023/11/15 09:00:39;;;;;;;9.98;1.80;;;;;;;-146.27;81.43;31561.63;5047190;28;20036;-73
2023/11/15 09:03:08;;;;;;;16.30;2.28;;;;;;;-146.27;81.03;31454.53;5050680;28;20742;-72
2023/11/15 09:05:34;;;;;;;11.32;1.40;;;;;;;-146.27;81.11;31488.25;5050554;28;20032;-72
2023/11/15 09:08:00;;;;;;;15.05;2.97;;;;;;;-146.27;81.01;31446.59;5040397;28;20029;-72
2023/11/15 09:10:27;;;;;;;17.52;3.15;;;;;;;-146.27;80.97;31482.28;5034086;28;20451;-71
2023/11/15 09:12:54;;;;;;;11.75;2.38;;;;;;;-146.27;81.45;31506.09;5041883;28;20033;-72
2023/11/15 09:15:20;;;;;;;15.00;2.13;;;;;;;-146.27;82.17;31498.16;5047383;28;20295;-73
2023/11/15 09:17:50;;;;;;;14.25;1.70;;;;;;;-146.27;82.55;31581.44;5021380;28;20048;-72
2023/11/15 09:20:19;;;;;;;28.52;3.33;;;;;;;-146.27;83.58;31724.25;5045655;28;20029;-72
2023/11/15 09:22:53;;;;;;;19.88;3.10;;;;;;;-146.27;83.02;31601.28;5038307;28;20525;-72
2023/11/15 09:25:23;;;;;;;15.05;2.72;;;;;;;-146.27;82.98;31559.63;5026266;28;20362;-72
2023/11/15 09:27:54;;;;;;;21.35;1.88;;;;;;;-146.27;82.86;31553.69;5042817;28;20091;-72
2023/11/15 09:30:21;;;;;;;20.98;2.13;;;;;;;-146.27;82.58;31492.22;5034795;28;20026;-72
2023/11/15 09:32:50;;;;;;;16.40;2.67;;;;;;;-146.27;82.46;31589.38;5021478;28;20498;-72
2023/11/15 09:35:16;;;;;;;18.83;2.63;;;;;;;-146.27;81.49;31490.22;5036681;28;20086;-72
2023/11/15 09:37:42;;;;;;;12.38;2.35;;;;;;;-146.27;81.30;31518.00;5026651;28;20039;-71
2023/11/15 09:40:12;;;;;;;12.50;2.13;;;;;;;-146.27;81.19;31523.94;5033254;28;20104;-72
2023/11/15 09:42:46;;;;;;;17.45;2.53;;;;;;;-146.27;81.12;31555.66;5028845;28;20040;-72
2023/11/15 09:45:16;;;;;;;;;;;;;;;-146.27;81.27;31539.81;5038771;28;20575;-72
2023/11/15 09:47:44;;;;;;;18.77;2.40;;;;;;;-146.27;80.71;31440.66;5023217;28;19917;-72
2023/11/15 09:50:13;;;;;;;18.02;1.88;;;;;;;-146.27;80.48;31410.91;5024041;28;20028;-72
2023/11/15 09:52:38;;;;;;;17.45;2.03;;;;;;;-146.27;79.65;31325.63;5026636;28;20021;-72
2023/11/15 09:55:05;;;;;;;15.93;2.53;;;;;;;-146.27;79.31;31351.41;5028377;28;20061;-72
2023/11/15 09:57:31;;;;;;;18.73;2.30;;;;;;;-146.27;78.50;31228.44;5023032;28;20470;-71
2023/11/15 09:59:56;;;;;;;14.38;2.17;;;;;;;-146.27;78.42;31208.63;5028528;28;20033;-71
2023/11/15 10:02:23;;;;;;;13.07;2.92;;;;;;;-146.27;77.86;31168.97;5040143;28;20033;-71
2023/11/15 10:05:28;;;;;;;16.15;2.60;;;;;;;-146.27;77.46;31268.13;5032365;28;20025;-72
2023/11/15 10:08:13;;;;;;;12.55;1.42;;;;;;;-146.27;77.43;31280.00;5024774;28;21656;-71
2023/11/15 10:10:40;;;;;;;12.48;1.98;;;;;;;-146.27;77.21;31240.34;5031897;28;20480;-73
2023/11/15 10:13:18;;;;;;;10.80;1.50;;;;;;;-146.27;76.94;31428.75;5013576;28;20033;-72
2023/11/15 10:15:44;;;;;;;13.07;1.95;;;;;;;-146.27;76.38;31268.13;5017171;28;20080;-72
2023/11/15 10:18:14;;;;;;;20.67;2.10;;;;;;;-146.27;76.09;31315.72;5023850;28;20065;-73
2023/11/15 10:20:41;;;;;;;17.88;3.15;;;;;;;-146.27;76.07;31256.22;5032329;28;20489;-72
2023/11/15 10:23:10;;;;;;;11.68;1.88;;;;;;;-146.27;77.08;31404.94;5015267;28;20029;-74
2023/11/15 10:25:52;;;;;;;10.68;1.70;;;;;;;-146.27;76.33;31256.22;5009435;28;20092;-72
2023/11/15 10:28:21;;;;;;;17.45;4.18;;;;;;;-146.27;75.20;31038.09;5009680;28;20052;-73
2023/11/15 10:31:00;;;;;;;16.50;3.38;;;;;;;-146.27;74.82;31097.56;5045977;28;20060;-72
2023/11/15 10:33:28;;;;;;;19.15;2.10;;;;;;;-146.27;73.97;31048.00;5033757;28;20048;-72
2023/11/15 10:35:55;;;;;;;14.48;1.88;;;;;;;-146.27;74.08;31145.16;5013654;28;20026;-72
2023/11/15 10:38:23;;;;;;;10.68;1.55;;;;;;;-146.27;74.61;31049.97;5014585;28;20030;-72
2023/11/15 10:40:49;;;;;;;12.50;1.50;;;;;;;-146.27;74.74;31117.41;5012165;28;21108;-70
2023/11/15 10:43:16;;;;;;;8.23;1.58;;;;;;;-146.27;73.12;31113.44;5004678;28;20034;-72
2023/11/15 10:45:45;;;;;;;13.07;2.20;;;;;;;-146.27;71.86;30994.47;5005836;28;20160;-73
2023/11/15 10:48:12;;;;;;;10.77;1.70;;;;;;;-146.27;70.77;31034.13;5019873;28;20043;-71
2023/11/15 10:50:43;;;;;;;12.50;1.63;;;;;;;-146.27;71.97;31204.66;5017776;28;20034;-71
2023/11/15 10:53:12;;;;;;;14.65;1.85;;;;;;;-146.27;71.73;31034.13;5020244;28;20021;-71
2023/11/15 10:55:39;;;;;;;4.07;1.52;;;;;;;-146.27;71.80;31129.28;5046673;28;20029;-72
2023/11/15 10:58:06;;;;;;;10.13;1.85;;;;;;;-146.27;71.24;30859.63;5043046;28;20029;-71
2023/11/15 11:00:34;;;;;;;15.07;1.50;;;;;;;-146.27;70.35;30952.81;5031864;28;20112;-72
2023/11/15 11:03:00;;;;;;;5.65;1.60;;;;;;;-146.27;70.59;31028.16;5032281;28;20078;-71
2023/11/15 11:05:40;;;;;;;13.20;1.80;;;;;;;-146.27;70.40;30938.94;5032895;28;20029;-72
2023/11/15 11:08:14;;;;;;;18.52;2.22;;;;;;;-146.27;71.08;31061.88;5028801;28;20079;-72